Time;durP1;ratioP1;P1;durP2;ratioP2;P2;SDS_P1;SDS_P2;PMS_P1;PMS_P2;Temp;Humidity;BMP_temperature;BMP_pressure;BME280_temperature;BME280_humidity;BME280_pressure;Samples;Min_cycle;Max_cycle;Signal;HPM_P1;HPM_P2
2022/01/01 00:01:04;;;;;;;;;21.67;21.33;;;;;15.39;73.52;102221.78;4995811;28;45380;-84
2022/01/01 00:03:29;;;;;;;;;23.67;22.67;;;;;15.52;73.87;102247.25;4995399;28;45437;-84
2022/01/01 00:05:55;;;;;;;;;24.67;21.33;;;;;15.27;73.77;102207.03;4995340;28;45443;-84
2022/01/01 00:08:20;;;;;;;;;22.33;22.33;;;;;15.55;73.91;102255.16;4994881;28;48492;-84
2022/01/01 00:10:45;;;;;;;;;20.00;19.33;;;;;15.45;74.15;102236.78;4995796;28;45538;-84
2022/01/01 00:13:11;;;;;;;;;23.00;21.33;;;;;15.36;73.80;102216.53;4995197;28;45470;-84
2022/01/01 00:15:36;;;;;;;;;25.67;23.67;;;;;15.59;73.82;102250.53;4995252;28;45404;-84
2022/01/01 00:18:01;;;;;;;;;25.00;21.67;;;;;15.59;74.27;102248.75;4995496;28;45424;-84
2022/01/01 00:20:27;;;;;;;;;24.00;23.00;;;;;15.61;74.02;102257.59;4995373;28;45498;-84
2022/01/01 00:22:52;;;;;;;;;28.67;24.00;;;;;15.35;73.93;102215.66;4994574;28;45434;-84
2022/01/01 00:25:17;;;;;;;;;12.67;9.67;;;;;15.62;73.88;102259.34;4995233;28;45399;-84
2022/01/01 00:27:43;;;;;;;;;27.33;21.67;;;;;15.66;74.00;102256.53;4995035;28;45459;-84
2022/01/01 00:30:09;;;;;;;;;23.00;20.00;;;;;15.62;73.73;102248.59;4995300;28;45391;-84
2022/01/01 00:32:38;;;;;;;;;24.67;23.67;;;;;15.56;73.80;102234.53;4994893;28;46331;-85
2022/01/01 00:35:04;;;;;;;;;27.00;22.00;;;;;15.67;73.52;102256.47;4994441;28;45390;-84
2022/01/01 00:37:30;;;;;;;;;27.67;26.67;;;;;15.66;73.48;102259.22;4993244;28;45221;-84
2022/01/01 00:39:55;;;;;;;;;34.33;28.00;;;;;15.65;73.22;102257.47;4995155;28;45341;-84
2022/01/01 00:42:22;;;;;;;;;26.00;24.33;;;;;15.59;73.28;102242.47;4994797;28;46152;-84
2022/01/01 00:44:47;;;;;;;;;29.67;25.67;;;;;15.38;73.14;102207.50;4993502;28;45484;-84
2022/01/01 00:47:13;;;;;;;;;26.67;24.00;;;;;15.66;73.29;102256.53;4994744;28;45367;-84
2022/01/01 00:49:38;;;;;;;;;23.33;22.33;;;;;15.64;73.16;102262.00;4995159;28;45341;-84
2022/01/01 00:52:03;;;;;;;;;22.33;19.67;;;;;15.64;73.23;102264.69;4994165;28;49051;-84
2022/01/01 00:54:29;;;;;;;;;28.00;23.00;;;;;15.41;72.81;102226.16;4994760;28;45417;-84
2022/01/01 00:56:54;;;;;;;;;24.67;21.67;;;;;15.45;73.30;102226.03;4994744;28;45513;-84
2022/01/01 00:59:20;;;;;;;;;29.33;29.00;;;;;15.58;73.14;102255.03;5010269;28;45523;-84
2022/01/01 01:01:46;;;;;;;;;26.00;24.67;;;;;15.44;73.21;102227.84;4994427;28;45970;-85
2022/01/01 01:04:12;;;;;;;;;24.00;23.00;;;;;15.61;73.13;102246.84;4994643;28;45365;-84
2022/01/01 01:06:37;;;;;;;;;22.00;22.00;;;;;15.60;73.24;102239.72;4994049;28;45366;-84
2022/01/01 01:09:03;;;;;;;;;27.33;23.33;;;;;15.41;72.74;102212.72;4994709;28;45427;-84
2022/01/01 01:11:29;;;;;;;;;24.00;22.33;;;;;15.60;73.11;102244.22;4994408;28;45462;-84
2022/01/01 01:13:59;;;;;;;;;26.00;23.00;;;;;15.61;72.83;102245.97;4994224;28;45436;-84
2022/01/01 01:16:27;;;;;;;;;26.67;24.67;;;;;15.63;72.82;102246.78;4994664;28;45442;-84
2022/01/01 01:18:54;;;;;;;;;24.33;24.33;;;;;15.50;72.68;102218.66;4994584;28;45655;-84
2022/01/01 01:21:22;;;;;;;;;26.33;26.33;;;;;15.31;72.69;102189.88;4993993;28;45459;-84
2022/01/01 01:23:48;;;;;;;;;25.33;23.33;;;;;15.36;72.59;102205.81;4994209;28;45427;-84
2022/01/01 01:26:14;;;;;;;;;20.00;17.33;;;;;15.55;72.47;102243.56;4994086;28;45422;-84
2022/01/01 01:28:46;;;;;;;;;21.67;21.67;;;;;15.54;72.85;102239.97;4994672;28;45429;-84
2022/01/01 01:31:11;;;;;;;;;30.00;24.67;;;;;15.34;72.24;102207.66;4994050;28;45467;-84
2022/01/01 01:33:36;;;;;;;;;28.67;21.00;;;;;15.47;72.14;102235.78;4994076;28;45538;-84
2022/01/01 01:36:02;;;;;;;;;24.67;24.00;;;;;15.51;72.40;102236.53;4993614;28;45425;-84
2022/01/01 01:38:27;;;;;;;;;23.00;20.33;;;;;15.48;72.33;102242.03;4994333;28;45464;-84
2022/01/01 01:40:53;;;;;;;;;25.67;22.33;;;;;15.23;72.60;102200.03;4992488;28;47995;-84
2022/01/01 01:43:19;;;;;;;;;26.33;26.33;;;;;15.33;72.70;102220.19;4992724;28;46029;-84
2022/01/01 01:45:44;;;;;;;;;29.00;23.67;;;;;15.39;72.41;102235.22;4994001;28;45413;-84
2022/01/01 01:48:09;;;;;;;;;30.00;26.67;;;;;15.38;72.48;102244.19;4995935;28;45480;-84
2022/01/01 01:50:37;;;;;;;;;30.67;28.33;;;;;14.96;72.76;102170.66;4996685;28;46202;-84
2022/01/01 01:53:03;;;;;;;;;37.33;31.67;;;;;15.36;72.36;102244.28;4997027;28;45381;-84
2022/01/01 01:55:28;;;;;;;;;36.33;34.33;;;;;15.32;72.27;102239.09;4996919;28;45326;-84
2022/01/01 01:57:55;;;;;;;;;32.67;26.67;;;;;15.25;72.37;102237.59;4997222;28;45527;-84
2022/01/01 02:03:09;;;;;;;;;35.67;28.67;;;;;15.18;72.56;102247.69;4996652;28;45371;-84
2022/01/01 02:05:35;;;;;;;;;29.33;28.33;;;;;15.14;72.60;102244.22;4995176;28;45578;-85
2022/01/01 02:08:01;;;;;;;;;33.00;29.00;;;;;14.94;72.63;102215.47;4997033;28;45495;-85
2022/01/01 02:10:27;;;;;;;;;34.00;32.00;;;;;14.91;72.56;102218.28;4996506;28;46017;-84
2022/01/01 02:12:55;;;;;;;;;32.67;29.33;;;;;14.87;72.62;102208.59;4996780;28;45513;-84
2022/01/01 02:15:40;;;;;;;;;30.33;30.33;;;;;15.09;72.62;102251.59;4996835;28;45414;-85
2022/01/01 02:18:06;;;;;;;;;29.67;27.33;;;;;15.07;72.27;102249.91;4995249;28;45702;-84
2022/01/01 02:20:31;;;;;;;;;34.00;31.67;;;;;14.88;72.54;102223.75;4995132;28;46590;-84
2022/01/01 02:23:00;;;;;;;;;28.00;24.00;;;;;14.72;72.58;102198.44;4996570;28;45529;-84
2022/01/01 02:25:26;;;;;;;;;37.67;32.00;;;;;14.98;72.62;102246.66;4996867;28;45415;-84
2022/01/01 02:27:52;;;;;;;;;32.00;30.00;;;;;14.73;72.64;102195.69;4996908;28;45470;-84
2022/01/01 02:30:17;;;;;;;;;33.33;30.67;;;;;14.75;72.44;102206.38;4996383;28;45399;-84
2022/01/01 02:32:43;;;;;;;;;30.00;25.00;;;;;14.93;72.82;102239.69;4996265;28;45218;-84
2022/01/01 02:35:11;;;;;;;;;31.67;31.67;;;;;14.92;72.72;102237.97;4996491;28;45332;-84
2022/01/01 02:37:38;;;;;;;;;32.00;29.33;;;;;14.91;72.71;102241.56;4996560;28;45420;-84
2022/01/01 02:40:04;;;;;;;;;30.00;27.33;;;;;14.89;73.08;102227.31;4996020;28;46056;-84
2022/01/01 02:42:30;;;;;;;;;28.00;27.00;;;;;14.70;72.90;102202.97;4996320;28;45519;-84
2022/01/01 02:44:58;;;;;;;;;29.67;26.33;;;;;14.81;72.83;102216.00;4996413;28;45445;-84
2022/01/01 02:47:23;;;;;;;;;29.67;23.00;;;;;14.76;73.08;102217.03;4996440;28;45542;-84
2022/01/01 02:49:48;;;;;;;;;26.33;22.33;;;;;14.53;72.93;102187.47;4994881;28;47380;-84
2022/01/01 02:52:13;;;;;;;;;24.67;24.67;;;;;14.40;73.32;102173.66;4996180;28;45527;-84
2022/01/01 02:54:39;;;;;;;;;27.00;24.33;;;;;14.61;73.03;102217.63;4996522;28;45420;-84
2022/01/01 02:57:04;;;;;;;;;24.67;24.67;;;;;14.64;73.52;102230.94;4996534;28;45460;-84
2022/01/01 02:59:30;;;;;;;;;26.33;24.33;;;;;14.62;73.25;102229.25;4995061;28;46993;-84
2022/01/01 03:01:55;;;;;;;;;32.00;25.00;;;;;14.57;73.77;102227.59;4995643;28;45389;-84
2022/01/01 03:04:21;;;;;;;;;18.67;18.67;;;;;14.53;73.56;102214.31;4996315;28;45483;-84
2022/01/01 03:06:53;;;;;;;;;24.33;23.67;;;;;14.47;73.34;102215.41;4996558;28;45454;-85
2022/01/01 03:09:19;;;;;;;;;25.33;21.67;;;;;14.52;73.58;102229.53;4994692;28;47266;-84
2022/01/01 03:11:44;;;;;;;;;28.00;25.33;;;;;14.32;73.85;102192.69;4994522;28;46070;-84
2022/01/01 03:14:10;;;;;;;;;27.00;25.33;;;;;14.51;73.57;102237.63;4996093;28;45409;-84
2022/01/01 03:16:36;;;;;;;;;25.67;24.67;;;;;14.18;73.83;102186.94;4994921;28;45322;-84
2022/01/01 03:19:01;;;;;;;;;22.33;21.67;;;;;14.30;73.48;102212.47;4995814;28;45777;-84
2022/01/01 03:21:27;;;;;;;;;29.33;25.00;;;;;14.45;73.86;102240.56;4994530;28;45909;-84
2022/01/01 03:23:52;;;;;;;;;29.67;24.00;;;;;14.46;73.83;102234.25;4994717;28;45418;-84
2022/01/01 03:26:18;;;;;;;;;26.67;21.67;;;;;14.44;74.06;102233.41;4996219;28;45422;-84
2022/01/01 03:28:43;;;;;;;;;25.67;25.67;;;;;14.40;74.12;102240.72;4995890;28;46007;-85
2022/01/01 03:31:08;;;;;;;;;27.67;23.67;;;;;14.39;73.77;102238.09;4995561;28;45243;-84
2022/01/01 03:33:34;;;;;;;;;27.67;24.33;;;;;14.19;73.63;102201.22;4995733;28;45351;-84
2022/01/01 03:35:59;;;;;;;;;24.67;22.67;;;;;14.40;73.86;102230.00;4996029;28;45385;-84
2022/01/01 03:38:24;;;;;;;;;26.33;23.67;;;;;14.26;73.82;102205.47;4995271;28;45899;-84
2022/01/01 03:40:50;;;;;;;;;24.67;18.00;;;;;14.40;73.62;102226.41;4995661;28;45258;-84
2022/01/01 03:43:15;;;;;;;;;23.00;19.67;;;;;14.39;73.90;102222.84;4996047;28;45445;-84
2022/01/01 03:45:40;;;;;;;;;24.33;22.67;;;;;14.17;74.07;102171.81;4995630;28;45576;-84
2022/01/01 03:48:06;;;;;;;;;21.00;20.67;;;;;14.41;73.79;102218.31;4995627;28;45270;-84
2022/01/01 03:50:32;;;;;;;;;24.67;24.00;;;;;14.42;73.54;102220.09;4995706;28;45333;-84
2022/01/01 03:52:58;;;;;;;;;21.67;21.67;;;;;14.39;73.96;102225.53;4995824;28;45364;-85
2022/01/01 03:55:23;;;;;;;;;26.33;23.00;;;;;14.37;73.50;102227.41;4995828;28;45409;-85
2022/01/01 03:57:48;;;;;;;;;21.67;21.67;;;;;14.32;73.82;102216.84;4995405;28;46414;-84
2022/01/01 04:00:15;;;;;;;;;25.33;24.67;;;;;14.37;73.91;102222.03;4994943;28;45349;-84
2022/01/01 04:02:40;;;;;;;;;20.67;20.67;;;;;14.36;73.56;102231.03;4995652;28;45574;-84
2022/01/01 04:05:06;;;;;;;;;25.33;20.67;;;;;14.29;73.53;102225.00;4995708;28;45498;-84
2022/01/01 04:07:32;;;;;;;;;35.33;26.33;;;;;14.31;73.74;102222.28;4995266;28;45649;-84
2022/01/01 04:09:58;;;;;;;;;26.00;21.67;;;;;14.25;73.99;102217.97;5010108;28;45589;-84
2022/01/01 04:12:25;;;;;;;;;24.67;22.33;;;;;14.05;74.42;102199.94;4995413;28;45424;-84
2022/01/01 04:14:50;;;;;;;;;27.67;27.00;;;;;14.13;73.94;102215.75;4995364;28;45571;-84
2022/01/01 04:17:16;;;;;;;;;28.33;25.00;;;;;14.14;74.09;102218.38;4995116;28;45407;-84
2022/01/01 04:19:41;;;;;;;;;22.67;21.33;;;;;14.13;74.28;102219.28;4995174;28;45431;-84
2022/01/01 04:22:12;;;;;;;;;28.33;24.67;;;;;13.95;74.47;102187.75;4995104;28;45354;-84
2022/01/01 04:24:38;;;;;;;;;24.67;19.33;;;;;14.05;74.58;102204.44;4995590;28;45420;-84
2022/01/01 04:27:04;;;;;;;;;23.67;23.67;;;;;14.00;74.27;102207.25;4995091;28;45442;-84
2022/01/01 04:29:30;;;;;;;;;27.67;25.33;;;;;13.96;74.43;102202.06;4994647;28;45388;-84
2022/01/01 04:31:56;;;;;;;;;30.00;27.00;;;;;13.92;74.61;102201.28;4995218;28;45408;-84
2022/01/01 04:34:22;;;;;;;;;29.33;24.67;;;;;13.83;74.63;102189.06;4995191;28;45326;-84
2022/01/01 04:36:55;;;;;;;;;30.00;27.33;;;;;13.82;74.73;102195.34;4993324;28;47459;-84
2022/01/01 04:39:20;;;;;;;;;28.67;23.67;;;;;13.61;75.08;102170.16;4995070;28;45500;-84
2022/01/01 04:41:46;;;;;;;;;31.67;30.00;;;;;13.82;75.08;102207.88;4994684;28;45540;-84
2022/01/01 04:44:11;;;;;;;;;26.33;20.33;;;;;13.64;74.75;102180.75;4994735;28;45564;-84
2022/01/01 04:46:36;;;;;;;;;29.00;25.33;;;;;13.60;74.80;102170.19;4994697;28;49193;-84
2022/01/01 04:49:02;;;;;;;;;27.67;25.33;;;;;13.80;74.95;102207.06;4994609;28;47727;-85
2022/01/01 04:51:27;;;;;;;;;26.67;25.67;;;;;13.60;74.98;102171.09;4994985;28;45400;-84
2022/01/01 04:53:59;;;;;;;;;30.00;26.00;;;;;13.80;74.83;102215.09;4995281;28;45443;-84
2022/01/01 04:56:24;;;;;;;;;28.33;25.33;;;;;13.67;74.61;102193.19;4993195;28;47744;-84
2022/01/01 04:58:50;;;;;;;;;25.33;24.33;;;;;13.68;74.78;102184.22;4994133;28;45392;-84
2022/01/01 05:01:16;;;;;;;;;18.67;16.33;;;;;13.84;74.58;102217.63;4994705;28;45440;-84
2022/01/01 05:03:41;;;;;;;;;24.67;22.00;;;;;13.83;74.59;102210.50;4994888;28;45364;-84
2022/01/01 05:06:06;;;;;;;;;25.00;24.50;;;;;13.69;74.60;102197.56;4994610;28;45371;-85
2022/01/01 05:08:32;;;;;;;;;24.00;22.67;;;;;13.60;74.36;102189.84;4993100;28;45297;-85
2022/01/01 05:10:57;;;;;;;;;31.00;30.00;;;;;13.70;74.48;102207.38;4993361;28;45499;-84
2022/01/01 05:13:22;;;;;;;;;26.33;23.67;;;;;13.65;74.10;102195.03;4994492;28;45471;-84
2022/01/01 05:15:50;;;;;;;;;23.00;22.00;;;;;13.84;73.95;102227.47;4994299;28;45279;-85
2022/01/01 05:18:16;;;;;;;;;30.00;26.67;;;;;13.59;73.75;102198.81;4994406;28;45337;-84
2022/01/01 05:20:41;;;;;;;;;23.67;23.33;;;;;13.50;74.24;102181.22;4994475;28;45438;-84
2022/01/01 05:23:06;;;;;;;;;24.33;24.33;;;;;13.76;74.28;102214.31;4996393;28;45526;-84
2022/01/01 05:25:32;;;;;;;;;28.33;25.67;;;;;13.83;73.97;102220.34;4997298;28;45432;-84
2022/01/01 05:27:57;;;;;;;;;37.67;31.67;;;;;13.66;74.15;102202.16;4997173;28;45446;-84
2022/01/01 05:30:23;;;;;;;;;29.67;27.33;;;;;13.83;73.59;102223.91;4997575;28;45346;-84
2022/01/01 05:32:48;;;;;;;;;26.33;24.33;;;;;13.67;73.99;102191.41;4997599;28;45629;-85
2022/01/01 05:35:13;;;;;;;;;29.00;25.33;;;;;13.80;73.74;102215.09;4997040;28;45380;-84
2022/01/01 05:37:39;;;;;;;;;26.00;24.00;;;;;13.75;73.91;102207.22;4996906;28;45428;-84
2022/01/01 05:40:05;;;;;;;;;22.00;18.67;;;;;13.64;73.69;102188.81;4997407;28;45460;-84
2022/01/01 05:42:30;;;;;;;;;19.67;19.67;;;;;13.64;74.05;102186.13;4997296;28;45452;-84
2022/01/01 05:44:56;;;;;;;;;20.00;20.00;;;;;13.55;73.48;102170.34;4996525;28;55136;-84
2022/01/01 05:47:21;;;;;;;;;24.33;22.33;;;;;13.77;73.84;102209.84;4996982;28;45510;-84
2022/01/01 05:49:46;;;;;;;;;25.67;23.67;;;;;13.34;73.85;102133.56;4995911;28;45411;-84
2022/01/01 05:52:11;;;;;;;;;18.00;18.00;;;;;13.76;73.61;102216.13;4997466;28;45464;-84
2022/01/01 05:54:37;;;;;;;;;20.67;19.33;;;;;13.51;73.75;102171.41;4996997;28;46002;-84
2022/01/01 05:57:03;;;;;;;;;18.00;16.67;;;;;13.75;73.62;102217.06;4996579;28;45351;-85
2022/01/01 05:59:28;;;;;;;;;18.67;17.33;;;;;13.74;73.05;102202.75;4997069;28;45573;-84
2022/01/01 06:01:54;;;;;;;;;22.67;18.33;;;;;13.55;73.00;102177.53;4997201;28;45334;-84
2022/01/01 06:04:20;;;;;;;;;19.00;17.33;;;;;13.65;72.75;102195.03;4996784;28;45928;-85
2022/01/01 06:06:45;;;;;;;;;19.33;18.00;;;;;13.69;73.24;102204.72;4996760;28;45304;-84
2022/01/01 06:09:11;;;;;;;;;18.33;16.67;;;;;13.67;73.16;102202.13;4996915;28;45364;-84
2022/01/01 06:11:36;;;;;;;;;23.00;19.33;;;;;13.67;73.21;102211.94;4996584;28;45243;-85
2022/01/01 06:14:01;;;;;;;;;21.00;19.00;;;;;13.61;73.04;102193.41;4996282;28;55974;-84
2022/01/01 06:16:26;;;;;;;;;23.00;19.67;;;;;13.42;73.12;102167.22;4996724;28;45384;-84
2022/01/01 06:18:52;;;;;;;;;23.67;20.00;;;;;13.63;73.03;102195.09;4996629;28;45463;-84
2022/01/01 06:21:17;;;;;;;;;20.00;20.00;;;;;13.48;73.04;102172.34;4997045;28;45498;-84
2022/01/01 06:23:43;;;;;;;;;23.00;17.00;;;;;13.51;72.83;102174.09;4996539;28;45565;-84
2022/01/01 06:26:08;;;;;;;;;18.67;17.33;;;;;13.54;72.63;102173.97;4995000;28;45440;-84
2022/01/01 06:28:33;;;;;;;;;14.67;14.00;;;;;13.66;72.87;102196.81;4995482;28;45793;-84
2022/01/01 06:30:59;;;;;;;;;21.33;15.33;;;;;13.43;72.74;102171.63;4996637;28;45579;-84
2022/01/01 06:33:24;;;;;;;;;17.67;17.67;;;;;13.64;72.21;102207.56;4995801;28;46308;-84
2022/01/01 06:35:50;;;;;;;;;21.33;20.00;;;;;13.37;72.51;102155.78;4995861;28;45367;-85
2022/01/01 06:38:16;;;;;;;;;20.33;19.33;;;;;13.54;72.35;102181.13;4996551;28;45555;-85
2022/01/01 06:40:43;;;;;;;;;21.00;19.00;;;;;13.63;72.41;102196.91;4996499;28;45426;-84
2022/01/01 06:43:12;;;;;;;;;19.67;17.00;;;;;13.63;72.70;102196.91;4996202;28;45463;-84
2022/01/01 06:45:38;;;;;;;;;16.33;16.33;;;;;13.63;72.19;102192.41;4994919;28;45514;-84
2022/01/01 06:48:03;;;;;;;;;21.00;17.33;;;;;13.55;72.23;102174.84;4996371;28;45423;-84
2022/01/01 06:50:29;;;;;;;;;24.33;21.67;;;;;13.64;72.19;102190.63;4996768;28;45583;-84
2022/01/01 06:52:54;;;;;;;;;18.67;16.00;;;;;13.63;71.99;102186.19;4996090;28;45608;-84
2022/01/01 06:55:20;;;;;;;;;21.33;19.33;;;;;13.63;72.11;102199.59;4996062;28;45475;-85
2022/01/01 06:57:46;;;;;;;;;21.33;15.33;;;;;13.63;71.92;102203.13;4996398;28;45525;-84
2022/01/01 07:00:13;;;;;;;;;23.67;20.00;;;;;13.46;72.07;102168.88;4995232;28;45518;-84
2022/01/01 07:02:40;;;;;;;;;18.67;18.00;;;;;13.67;71.87;102201.22;4996055;28;45444;-84
2022/01/01 07:05:06;;;;;;;;;17.67;16.67;;;;;13.65;71.91;102195.94;4995780;28;45415;-84
2022/01/01 07:07:32;;;;;;;;;18.33;16.67;;;;;13.52;71.47;102174.00;4996257;28;45508;-84
2022/01/01 07:09:57;;;;;;;;;20.00;18.33;;;;;13.67;71.43;102193.19;4995920;28;45622;-84
2022/01/01 07:12:23;;;;;;;;;23.67;20.33;;;;;13.68;71.87;102189.59;4996031;28;46006;-84
2022/01/01 07:14:48;;;;;;;;;20.33;18.33;;;;;13.69;71.62;102191.31;4996202;28;45398;-84
2022/01/01 07:17:14;;;;;;;;;23.67;18.67;;;;;13.57;71.38;102170.31;4995820;28;50919;-83
2022/01/01 07:19:39;;;;;;;;;23.33;22.00;;;;;13.57;71.50;102167.63;4996129;28;45478;-84
2022/01/01 07:22:04;;;;;;;;;23.67;20.67;;;;;13.66;71.58;102202.16;4995122;28;59121;-84
2022/01/01 07:24:30;;;;;;;;;22.67;19.00;;;;;13.50;71.48;102167.81;4995707;28;45467;-84
2022/01/01 07:26:55;;;;;;;;;29.33;23.67;;;;;13.52;71.60;102175.81;4996095;28;45466;-84
2022/01/01 07:29:20;;;;;;;;;22.00;18.33;;;;;13.65;71.42;102203.06;4996343;28;45317;-84
2022/01/01 07:31:46;;;;;;;;;23.00;18.67;;;;;13.58;71.34;102189.03;4995728;28;45770;-84
2022/01/01 07:34:11;;;;;;;;;23.33;23.00;;;;;13.61;71.28;102190.72;4995545;28;48617;-84
2022/01/01 07:36:37;;;;;;;;;25.00;20.00;;;;;13.58;71.04;102186.34;4995775;28;45348;-84
2022/01/01 07:39:03;;;;;;;;;21.67;18.67;;;;;13.49;71.19;102173.25;4994270;28;45310;-84
2022/01/01 07:41:28;;;;;;;;;22.00;22.00;;;;;13.40;71.15;102152.13;4995532;28;46216;-84
2022/01/01 07:43:53;;;;;;;;;24.00;23.67;;;;;13.67;71.15;102190.50;4995616;28;45317;-84
2022/01/01 07:46:19;;;;;;;;;23.33;23.33;;;;;13.47;71.09;102165.25;4995187;28;45441;-84
2022/01/01 07:48:44;;;;;;;;;27.00;21.00;;;;;13.46;71.02;102154.59;4995833;28;45506;-84
2022/01/01 07:51:09;;;;;;;;;23.67;21.00;;;;;13.56;70.60;102179.28;4995588;28;45512;-84
2022/01/01 07:53:35;;;;;;;;;25.33;22.00;;;;;13.57;70.85;102181.91;4994952;28;47313;-84
2022/01/01 07:56:00;;;;;;;;;22.67;18.67;;;;;13.39;70.94;102156.63;4995733;28;45466;-84
2022/01/01 07:58:25;;;;;;;;;21.33;21.33;;;;;13.67;70.78;102204.81;4995698;28;45330;-84
2022/01/01 08:00:51;;;;;;;;;20.00;16.67;;;;;13.50;71.02;102170.50;4995455;28;45352;-84
2022/01/01 08:03:16;;;;;;;;;17.67;17.67;;;;;13.44;70.68;102170.72;4995140;28;45858;-84
2022/01/01 08:05:41;;;;;;;;;18.67;18.67;;;;;13.63;70.35;102213.00;4995618;28;45704;-84
2022/01/01 08:08:07;;;;;;;;;20.00;20.00;;;;;13.58;70.46;102199.75;4995432;28;45686;-84
2022/01/01 08:10:34;;;;;;;;;20.33;17.33;;;;;13.57;70.69;102200.66;4995069;28;55046;-84
2022/01/01 08:13:00;;;;;;;;;22.67;22.67;;;;;13.57;70.75;102202.47;4995214;28;45482;-84
2022/01/01 08:15:26;;;;;;;;;22.00;19.33;;;;;13.56;70.69;102203.41;4995237;28;45400;-84
2022/01/01 08:17:51;;;;;;;;;24.00;20.00;;;;;13.55;70.65;102196.28;4995695;28;45277;-84
2022/01/01 08:20:16;;;;;;;;;19.33;15.67;;;;;13.51;70.46;102177.63;4995026;28;46157;-84
2022/01/01 08:22:42;;;;;;;;;17.67;17.00;;;;;13.43;70.79;102163.59;4994814;28;45446;-84
2022/01/01 08:25:07;;;;;;;;;21.00;15.67;;;;;13.59;70.59;102188.09;4995111;28;45415;-84
2022/01/01 08:27:33;;;;;;;;;14.00;13.33;;;;;13.34;70.78;102146.97;4994100;28;45519;-84
2022/01/01 08:29:58;;;;;;;;;18.67;17.67;;;;;13.56;70.61;102185.53;4995232;28;46128;-84
2022/01/01 08:32:23;;;;;;;;;19.67;18.00;;;;;13.50;70.54;102165.16;4995027;28;45461;-84
2022/01/01 08:34:50;;;;;;;;;29.33;22.33;;;;;13.54;70.66;102173.09;4995230;28;45329;-84
2022/01/01 08:37:16;;;;;;;;;17.33;16.67;;;;;13.52;70.61;102162.44;4993394;28;45584;-83
2022/01/01 08:39:41;;;;;;;;;24.00;18.67;;;;;13.58;70.70;102172.06;4993262;28;46008;-84
2022/01/01 08:42:09;;;;;;;;;23.00;19.33;;;;;13.38;70.55;102137.91;4994849;27;45303;-84
2022/01/01 08:44:34;;;;;;;;;23.33;18.33;;;;;13.63;70.63;102189.75;4995168;28;45362;-84
2022/01/01 08:47:00;;;;;;;;;20.33;20.33;;;;;13.66;70.25;102186.09;4995213;28;45427;-84
2022/01/01 08:49:25;;;;;;;;;15.67;15.67;;;;;13.62;70.21;102179.06;4994776;28;45563;-84
2022/01/01 08:51:51;;;;;;;;;15.67;15.67;;;;;13.55;70.38;102173.03;4994633;28;45404;-84
2022/01/01 08:54:16;;;;;;;;;51.33;41.33;;;;;13.58;70.11;102174.72;4994622;28;45476;-84
2022/01/01 08:56:42;;;;;;;;;28.33;23.33;;;;;13.51;70.12;102160.69;4993871;28;45408;-84
2022/01/01 08:59:08;;;;;;;;;16.00;16.00;;;;;13.51;70.32;102166.06;4997501;28;45439;-84
2022/01/01 09:01:33;;;;;;;;;15.00;15.00;;;;;13.38;69.53;102136.09;4997422;28;45450;-84
2022/01/01 09:03:59;;;;;;;;;21.67;16.67;;;;;13.59;69.70;102177.38;4997948;28;45331;-84
2022/01/01 09:06:25;;;;;;;;;15.33;15.33;;;;;13.70;69.86;102193.97;4997682;28;45485;-84
2022/01/01 09:08:50;;;;;;;;;20.67;14.33;;;;;13.64;69.80;102174.53;4997480;28;46340;-84
2022/01/01 09:11:16;;;;;;;;;17.67;16.33;;;;;13.70;69.79;102175.22;4997482;28;45435;-84
2022/01/01 09:13:43;;;;;;;;;21.33;19.33;;;;;13.44;69.93;102125.19;4997692;28;45469;-84
2022/01/01 09:16:13;;;;;;;;;18.00;16.00;;;;;13.51;69.92;102129.41;4998066;28;45341;-84
2022/01/01 09:18:40;;;;;;;;;14.33;14.00;;;;;13.50;69.52;102111.56;4997000;28;45521;-84
2022/01/01 09:21:06;;;;;;;;;14.67;14.67;;;;;13.57;69.65;102108.69;4997296;28;45500;-84
2022/01/01 09:23:31;;;;;;;;;13.00;13.00;;;;;13.77;69.87;102135.69;4997291;28;45534;-84
2022/01/01 09:25:57;;;;;;;;;14.67;14.67;;;;;13.81;69.38;102123.03;4997971;28;45523;-84
2022/01/01 09:28:22;;;;;;;;;17.67;16.00;;;;;13.81;69.14;102118.53;4997236;28;46131;-84
2022/01/01 09:30:48;;;;;;;;;15.67;12.67;;;;;13.88;69.49;102124.56;4997155;27;45375;-84
2022/01/01 09:33:13;;;;;;;;;17.00;14.33;;;;;13.67;68.79;102081.56;4997027;28;45460;-84
2022/01/01 09:35:40;;;;;;;;;19.67;15.00;;;;;14.06;68.56;102133.78;4997610;28;45648;-84
2022/01/01 09:38:05;;;;;;;;;15.33;13.67;;;;;13.94;68.92;102109.16;4996910;28;45516;-84
2022/01/01 09:40:32;;;;;;;;;19.33;14.00;;;;;13.90;68.28;102104.81;4996808;28;45500;-84
2022/01/01 09:42:58;;;;;;;;;11.33;10.33;;;;;14.08;69.09;102121.19;4997295;28;45505;-84
2022/01/01 09:45:23;;;;;;;;;16.33;12.00;;;;;14.21;68.38;102135.91;4997548;28;45558;-83
2022/01/01 09:47:50;;;;;;;;;16.00;15.00;;;;;14.04;67.53;102115.06;4996675;28;46076;-84
2022/01/01 09:50:15;;;;;;;;;17.33;16.33;;;;;14.06;67.38;102098.91;4997052;28;45527;-84
2022/01/01 09:52:41;;;;;;;;;16.33;13.33;;;;;14.28;67.55;102140.13;4997023;28;45901;-84
2022/01/01 09:55:06;;;;;;;;;15.00;14.67;;;;;14.12;67.09;102115.66;4997446;28;45406;-84
2022/01/01 09:57:32;;;;;;;;;13.00;13.00;;;;;14.17;66.78;102110.13;4996704;28;45498;-84
2022/01/01 09:59:57;;;;;;;;;16.33;12.00;;;;;14.14;66.95;102096.81;4997117;28;45412;-84
2022/01/01 10:02:23;;;;;;;;;13.00;13.00;;;;;14.14;66.88;102087.00;4996290;28;45349;-84
2022/01/01 10:04:51;;;;;;;;;11.33;11.33;;;;;14.42;66.65;102134.25;4997176;28;46106;-84
2022/01/01 10:07:18;;;;;;;;;12.67;9.67;;;;;14.34;67.01;102121.09;4996950;28;45407;-84
2022/01/01 10:09:43;;;;;;;;;16.00;13.00;;;;;14.49;66.39;102143.81;4996522;28;45357;-84
2022/01/01 10:12:14;;;;;;;;;11.67;10.00;;;;;14.53;65.82;102141.88;4996982;28;45313;-84
2022/01/01 10:14:41;;;;;;;;;13.00;13.00;;;;;14.55;66.15;102140.91;4997120;28;45447;-84
2022/01/01 10:17:12;;;;;;;;;12.33;12.00;;;;;14.55;66.00;102135.53;4996391;28;45387;-84
2022/01/01 10:19:38;;;;;;;;;15.00;11.00;;;;;14.55;66.04;102127.50;4996589;28;45393;-84
2022/01/01 10:22:06;;;;;;;;;11.00;11.00;;;;;14.43;65.77;102111.84;5011644;28;45553;-84
2022/01/01 10:27:42;;;;;;;;;13.33;11.00;;;;;14.55;65.68;102132.00;4996937;28;45357;-84
2022/01/01 10:30:01;;;;;;;;;9.33;9.33;;;;;14.39;65.18;102120.94;4996557;28;45451;-84
2022/01/01 10:32:26;;;;;;;;;10.67;9.33;;;;;14.32;65.95;102109.53;4996143;28;45531;-84
2022/01/01 10:34:51;;;;;;;;;17.67;14.33;;;;;14.28;65.72;102109.72;4996839;28;45400;-84
2022/01/01 10:37:17;;;;;;;;;9.67;9.67;;;;;14.51;65.46;102139.22;4994776;28;53635;-84
2022/01/01 10:39:54;;;;;;;;;17.67;14.33;;;;;14.06;65.64;102058.72;4996029;28;45414;-84
2022/01/01 10:42:19;;;;;;;;;9.67;9.67;;;;;14.49;65.25;102135.75;4996449;28;45596;-84
2022/01/01 10:44:50;;;;;;;;;8.67;8.67;;;;;14.38;65.48;102123.69;4996638;28;45567;-84
2022/01/01 10:47:21;;;;;;;;;13.00;12.00;;;;;14.24;65.06;102106.28;4996092;28;45548;-84
2022/01/01 10:52:24;;;;;;;;;14.00;13.67;;;;;14.52;65.30;102134.75;4996400;28;45390;-84
2022/01/01 10:54:58;;;;;;;;;16.00;16.00;;;;;14.54;65.05;102133.81;4996618;28;45288;-84
2022/01/01 10:57:33;;;;;;;;;14.00;10.00;;;;;14.32;65.27;102093.44;4996158;28;46317;-84
2022/01/01 11:00:18;;;;;;;;;15.00;15.00;;;;;14.61;64.71;102139.81;4996130;28;45506;-84
2022/01/01 11:02:47;;;;;;;;;13.33;11.00;;;;;14.49;64.50;102095.53;4996124;28;45494;-84
2022/01/01 11:05:12;;;;;;;;;11.33;10.33;;;;;14.30;64.70;102065.81;4996579;28;45548;-84
2022/01/01 11:07:48;;;;;;;;;12.00;9.67;;;;;14.75;64.57;102134.78;4995942;28;45561;-84
2022/01/01 11:10:14;;;;;;;;;12.00;12.00;;;;;14.59;64.46;102090.69;4996093;28;45310;-84
2022/01/01 11:12:41;;;;;;;;;12.67;9.67;;;;;14.89;64.04;102128.88;4996074;28;45365;-84